PWSweather.com
Personal Weather Stations
Station Observations
SPARKSRC
St. Petersburg, FL 33716

St. Petersburg, FL 33716

Lat: 27.876101, Lon: -82.657194

Elevation: 13

Station Type: Zephyr PWS-1000TD

High Low Average
Temperature 104.5°F40.3°F 77.0°F25.0°F 86.8°F30.4°F
Dew Point 81.5°F27.5°F 70.4°F21.3°F 75.4°F24.1°F
Winds 12.1 mph S19.5 mph S Calm Calm 4.9 mph 7.9 mph
Wind Gusts 19.7 mph31.7 mph -- 9.1 mph14.6 mph
Humidity 84% 47% 70%
Pressure 29.86 in1011.20 in 29.78 in1008.50 in -
Precipitation 3.96 in100.60 in - -
Hour Temp Dew Point Humidity Winds Wind Gusts Pressure Precip Precip Rate Daily Precip Total
12:00 AM 77.4°F25.2°C 70.4°F21.3°C 79% 1.6 mph ESE2.6 kmh ESE 3.1 mph5.0 kmh 29.84 in1010.5 mb 0.00 in0.0 mm 0.00 in0.0 mm 0.00 in0.0 mm
12:05 AM 77.4°F25.2°C 70.4°F21.3°C 79% 3.1 mph SE5.0 kmh SE 4.5 mph7.2 kmh 29.84 in1010.5 mb 0.00 in0.0 mm 0.00 in0.0 mm 0.00 in0.0 mm
12:10 AM 77.4°F25.2°C 70.4°F21.3°C 79% 3.1 mph SE5.0 kmh SE 5.4 mph8.7 kmh 29.84 in1010.5 mb 0.00 in0.0 mm 0.00 in0.0 mm 0.00 in0.0 mm
12:15 AM 77.4°F25.2°C 70.8°F21.6°C 80% 2.2 mph SE3.5 kmh SE 5.4 mph8.7 kmh 29.84 in1010.5 mb 0.00 in0.0 mm 0.00 in0.0 mm 0.00 in0.0 mm
12:20 AM 77.5°F25.3°C 70.9°F21.6°C 80% 4.5 mph SE7.2 kmh SE 6.9 mph11.1 kmh 29.83 in1010.2 mb 0.00 in0.0 mm 0.00 in0.0 mm 0.00 in0.0 mm
12:25 AM 77.5°F25.3°C 70.9°F21.6°C 80% 5.4 mph SE8.7 kmh SE 8.3 mph13.4 kmh 29.84 in1010.5 mb 0.00 in0.0 mm 0.00 in0.0 mm 0.00 in0.0 mm
12:30 AM 77.7°F25.4°C 71.1°F21.7°C 80% 3.8 mph SE6.1 kmh SE 8.3 mph13.4 kmh 29.83 in1010.2 mb 0.00 in0.0 mm 0.00 in0.0 mm 0.00 in0.0 mm
12:35 AM 77.9°F25.5°C 71.6°F22.0°C 81% 5.4 mph SE8.7 kmh SE 8.3 mph13.4 kmh 29.83 in1010.2 mb 0.00 in0.0 mm 0.00 in0.0 mm 0.00 in0.0 mm
12:40 AM 77.9°F25.5°C 71.6°F22.0°C 81% 5.4 mph SE8.7 kmh SE 8.3 mph13.4 kmh 29.83 in1010.2 mb 0.00 in0.0 mm 0.00 in0.0 mm 0.00 in0.0 mm
12:45 AM 77.9°F25.5°C 71.6°F22.0°C 81% 6.0 mph SE9.7 kmh SE 8.3 mph13.4 kmh 29.84 in1010.5 mb 0.00 in0.0 mm 0.00 in0.0 mm 0.00 in0.0 mm
12:50 AM 77.9°F25.5°C 71.6°F22.0°C 81% 3.8 mph SE6.1 kmh SE 8.3 mph13.4 kmh 29.84 in1010.5 mb 0.00 in0.0 mm 0.00 in0.0 mm 0.00 in0.0 mm
12:55 AM 77.7°F25.4°C 71.5°F21.9°C 81% 4.5 mph ESE7.2 kmh ESE 8.3 mph13.4 kmh 29.84 in1010.5 mb 0.00 in0.0 mm 0.00 in0.0 mm 0.00 in0.0 mm
01:00 AM 77.7°F25.4°C 71.5°F21.9°C 81% 3.1 mph ESE5.0 kmh ESE 8.3 mph13.4 kmh 29.84 in1010.5 mb 0.00 in0.0 mm 0.00 in0.0 mm 0.00 in0.0 mm
01:05 AM 77.7°F25.4°C 71.5°F21.9°C 81% 3.1 mph ESE5.0 kmh ESE 6.9 mph11.1 kmh 29.84 in1010.5 mb 0.00 in0.0 mm 0.00 in0.0 mm 0.00 in0.0 mm
01:10 AM 77.7°F25.4°C 71.5°F21.9°C 81% 2.2 mph SE3.5 kmh SE 6.9 mph11.1 kmh 29.84 in1010.5 mb 0.00 in0.0 mm 0.00 in0.0 mm 0.00 in0.0 mm
01:15 AM 77.7°F25.4°C 71.5°F21.9°C 81% 2.2 mph SE3.5 kmh SE 7.6 mph12.2 kmh 29.84 in1010.5 mb 0.00 in0.0 mm 0.00 in0.0 mm 0.00 in0.0 mm
01:20 AM 77.9°F25.5°C 71.6°F22.0°C 81% 2.2 mph SE3.5 kmh SE 7.6 mph12.2 kmh 29.84 in1010.5 mb 0.00 in0.0 mm 0.00 in0.0 mm 0.00 in0.0 mm
01:25 AM 77.9°F25.5°C 71.6°F22.0°C 81% 3.1 mph SE5.0 kmh SE 5.4 mph8.7 kmh 29.84 in1010.5 mb 0.00 in0.0 mm 0.00 in0.0 mm 0.00 in0.0 mm
01:30 AM 77.9°F25.5°C 71.6°F22.0°C 81% 3.8 mph SE6.1 kmh SE 5.4 mph8.7 kmh 29.84 in1010.5 mb 0.00 in0.0 mm 0.00 in0.0 mm 0.00 in0.0 mm
01:35 AM 77.9°F25.5°C 71.6°F22.0°C 81% 3.1 mph SE5.0 kmh SE 5.4 mph8.7 kmh 29.83 in1010.2 mb 0.00 in0.0 mm 0.00 in0.0 mm 0.00 in0.0 mm
01:40 AM 77.9°F25.5°C 71.6°F22.0°C 81% 2.2 mph SE3.5 kmh SE 5.4 mph8.7 kmh 29.84 in1010.5 mb 0.00 in0.0 mm 0.00 in0.0 mm 0.00 in0.0 mm
01:45 AM 77.9°F25.5°C 71.6°F22.0°C 81% 2.2 mph ESE3.5 kmh ESE 3.8 mph6.1 kmh 29.84 in1010.5 mb 0.00 in0.0 mm 0.00 in0.0 mm 0.00 in0.0 mm
01:50 AM 77.7°F25.4°C 71.5°F21.9°C 81% 3.1 mph SE5.0 kmh SE 6.0 mph9.7 kmh 29.83 in1010.2 mb 0.00 in0.0 mm 0.00 in0.0 mm 0.00 in0.0 mm
01:55 AM 77.7°F25.4°C 71.5°F21.9°C 81% 4.5 mph SE7.2 kmh SE 6.9 mph11.1 kmh 29.83 in1010.2 mb 0.00 in0.0 mm 0.00 in0.0 mm 0.00 in0.0 mm
02:00 AM 77.9°F25.5°C 71.6°F22.0°C 81% 3.1 mph SE5.0 kmh SE 6.9 mph11.1 kmh 29.83 in1010.2 mb 0.00 in0.0 mm 0.00 in0.0 mm 0.00 in0.0 mm
02:05 AM 77.7°F25.4°C 71.5°F21.9°C 81% 3.8 mph SE6.1 kmh SE 6.0 mph9.7 kmh 29.83 in1010.2 mb 0.00 in0.0 mm 0.00 in0.0 mm 0.00 in0.0 mm
02:10 AM 77.9°F25.5°C 71.6°F22.0°C 81% 4.5 mph SE7.2 kmh SE 6.0 mph9.7 kmh 29.83 in1010.2 mb 0.00 in0.0 mm 0.00 in0.0 mm 0.00 in0.0 mm
02:15 AM 77.9°F25.5°C 71.6°F22.0°C 81% 3.8 mph SE6.1 kmh SE 6.9 mph11.1 kmh 29.82 in1009.8 mb 0.00 in0.0 mm 0.00 in0.0 mm 0.00 in0.0 mm
02:20 AM 77.7°F25.4°C 71.8°F22.1°C 82% 4.5 mph SE7.2 kmh SE 6.9 mph11.1 kmh 29.82 in1009.8 mb 0.00 in0.0 mm 0.00 in0.0 mm 0.00 in0.0 mm
02:25 AM 77.7°F25.4°C 71.8°F22.1°C 82% 3.1 mph SE5.0 kmh SE 6.9 mph11.1 kmh 29.82 in1009.8 mb 0.00 in0.0 mm 0.00 in0.0 mm 0.00 in0.0 mm
02:30 AM 77.7°F25.4°C 71.8°F22.1°C 82% 1.6 mph SE2.6 kmh SE 6.9 mph11.1 kmh 29.82 in1009.8 mb 0.00 in0.0 mm 0.00 in0.0 mm 0.00 in0.0 mm
02:35 AM 77.7°F25.4°C 71.8°F22.1°C 82% 1.6 mph SE2.6 kmh SE 4.5 mph7.2 kmh 29.81 in1009.5 mb 0.00 in0.0 mm 0.00 in0.0 mm 0.00 in0.0 mm
02:40 AM 77.5°F25.3°C 71.7°F22.1°C 82% 3.1 mph SE5.0 kmh SE 5.4 mph8.7 kmh 29.81 in1009.5 mb 0.00 in0.0 mm 0.00 in0.0 mm 0.00 in0.0 mm
02:45 AM 77.5°F25.3°C 71.7°F22.1°C 82% 3.1 mph SE5.0 kmh SE 6.0 mph9.7 kmh 29.81 in1009.5 mb 0.00 in0.0 mm 0.00 in0.0 mm 0.00 in0.0 mm
02:50 AM 77.5°F25.3°C 71.7°F22.1°C 82% 1.6 mph SE2.6 kmh SE 6.0 mph9.7 kmh 29.81 in1009.5 mb 0.00 in0.0 mm 0.00 in0.0 mm 0.00 in0.0 mm
02:55 AM 77.5°F25.3°C 71.7°F22.1°C 82% 3.1 mph SE5.0 kmh SE 6.0 mph9.7 kmh 29.81 in1009.5 mb 0.00 in0.0 mm 0.00 in0.0 mm 0.00 in0.0 mm
03:00 AM 77.7°F25.4°C 71.8°F22.1°C 82% 3.1 mph SE5.0 kmh SE 6.0 mph9.7 kmh 29.80 in1009.1 mb 0.00 in0.0 mm 0.00 in0.0 mm 0.00 in0.0 mm
03:05 AM 77.5°F25.3°C 71.7°F22.1°C 82% 3.8 mph SE6.1 kmh SE 5.4 mph8.7 kmh 29.81 in1009.5 mb 0.00 in0.0 mm 0.00 in0.0 mm 0.00 in0.0 mm
03:10 AM 77.5°F25.3°C 71.7°F22.1°C 82% 2.2 mph SSE3.5 kmh SSE 5.4 mph8.7 kmh 29.81 in1009.5 mb 0.00 in0.0 mm 0.00 in0.0 mm 0.00 in0.0 mm
03:15 AM 77.5°F25.3°C 71.7°F22.1°C 82% 2.2 mph SSE3.5 kmh SSE 5.4 mph8.7 kmh 29.81 in1009.5 mb 0.00 in0.0 mm 0.00 in0.0 mm 0.00 in0.0 mm
03:20 AM 77.5°F25.3°C 71.7°F22.1°C 82% 3.1 mph SE5.0 kmh SE 4.5 mph7.2 kmh 29.81 in1009.5 mb 0.00 in0.0 mm 0.00 in0.0 mm 0.00 in0.0 mm
03:25 AM 77.5°F25.3°C 71.7°F22.1°C 82% 2.2 mph SE3.5 kmh SE 5.4 mph8.7 kmh 29.81 in1009.5 mb 0.00 in0.0 mm 0.00 in0.0 mm 0.00 in0.0 mm
03:30 AM 77.5°F25.3°C 71.7°F22.1°C 82% 2.2 mph SE3.5 kmh SE 5.4 mph8.7 kmh 29.80 in1009.1 mb 0.00 in0.0 mm 0.00 in0.0 mm 0.00 in0.0 mm
03:35 AM 77.5°F25.3°C 71.7°F22.1°C 82% 2.2 mph SE3.5 kmh SE 4.5 mph7.2 kmh 29.80 in1009.1 mb 0.00 in0.0 mm 0.00 in0.0 mm 0.00 in0.0 mm
03:40 AM 77.5°F25.3°C 71.7°F22.1°C 82% 2.2 mph SE3.5 kmh SE 4.5 mph7.2 kmh 29.81 in1009.5 mb 0.00 in0.0 mm 0.00 in0.0 mm 0.00 in0.0 mm
03:45 AM 77.5°F25.3°C 71.7°F22.1°C 82% 2.2 mph SE3.5 kmh SE 5.4 mph8.7 kmh 29.80 in1009.1 mb 0.00 in0.0 mm 0.00 in0.0 mm 0.00 in0.0 mm
03:50 AM 77.4°F25.2°C 71.8°F22.1°C 83% 2.2 mph SE3.5 kmh SE 5.4 mph8.7 kmh 29.80 in1009.1 mb 0.00 in0.0 mm 0.00 in0.0 mm 0.00 in0.0 mm
03:55 AM 77.4°F25.2°C 71.8°F22.1°C 83% 2.2 mph SE3.5 kmh SE 5.4 mph8.7 kmh 29.80 in1009.1 mb 0.00 in0.0 mm 0.00 in0.0 mm 0.00 in0.0 mm
04:00 AM 77.4°F25.2°C 71.5°F21.9°C 82% 2.2 mph ESE3.5 kmh ESE 4.5 mph7.2 kmh 29.81 in1009.5 mb 0.00 in0.0 mm 0.00 in0.0 mm 0.00 in0.0 mm
04:05 AM 77.4°F25.2°C 71.8°F22.1°C 83% 1.6 mph ESE2.6 kmh ESE 4.5 mph7.2 kmh 29.80 in1009.1 mb 0.00 in0.0 mm 0.00 in0.0 mm 0.00 in0.0 mm
04:10 AM 77.4°F25.2°C 71.8°F22.1°C 83% 2.2 mph SE3.5 kmh SE 3.8 mph6.1 kmh 29.81 in1009.5 mb 0.00 in0.0 mm 0.00 in0.0 mm 0.00 in0.0 mm
04:15 AM 77.4°F25.2°C 71.8°F22.1°C 83% 2.2 mph SE3.5 kmh SE 3.8 mph6.1 kmh 29.81 in1009.5 mb 0.00 in0.0 mm 0.00 in0.0 mm 0.00 in0.0 mm
04:20 AM 77.4°F25.2°C 71.8°F22.1°C 83% 3.8 mph SE6.1 kmh SE 5.4 mph8.7 kmh 29.80 in1009.1 mb 0.00 in0.0 mm 0.00 in0.0 mm 0.00 in0.0 mm
04:25 AM 77.4°F25.2°C 71.5°F21.9°C 82% 4.5 mph SE7.2 kmh SE 6.0 mph9.7 kmh 29.80 in1009.1 mb 0.00 in0.0 mm 0.00 in0.0 mm 0.00 in0.0 mm
04:30 AM 77.4°F25.2°C 71.8°F22.1°C 83% 3.8 mph SE6.1 kmh SE 6.9 mph11.1 kmh 29.81 in1009.5 mb 0.00 in0.0 mm 0.00 in0.0 mm 0.00 in0.0 mm
04:35 AM 77.4°F25.2°C 71.8°F22.1°C 83% 3.1 mph SE5.0 kmh SE 6.9 mph11.1 kmh 29.80 in1009.1 mb 0.00 in0.0 mm 0.00 in0.0 mm 0.00 in0.0 mm
04:40 AM 77.4°F25.2°C 71.8°F22.1°C 83% 4.5 mph ESE7.2 kmh ESE 7.6 mph12.2 kmh 29.80 in1009.1 mb 0.00 in0.0 mm 0.00 in0.0 mm 0.00 in0.0 mm
04:45 AM 77.5°F25.3°C 72.0°F22.2°C 83% 3.1 mph ESE5.0 kmh ESE 7.6 mph12.2 kmh 29.81 in1009.5 mb 0.00 in0.0 mm 0.00 in0.0 mm 0.00 in0.0 mm
04:50 AM 77.5°F25.3°C 72.0°F22.2°C 83% 2.2 mph E3.5 kmh E 6.0 mph9.7 kmh 29.80 in1009.1 mb 0.00 in0.0 mm 0.00 in0.0 mm 0.00 in0.0 mm
04:55 AM 77.4°F25.2°C 71.8°F22.1°C 83% 1.6 mph E2.6 kmh E 4.5 mph7.2 kmh 29.80 in1009.1 mb 0.00 in0.0 mm 0.00 in0.0 mm 0.00 in0.0 mm
05:00 AM 77.4°F25.2°C 71.8°F22.1°C 83% 2.2 mph E3.5 kmh E 4.5 mph7.2 kmh 29.80 in1009.1 mb 0.00 in0.0 mm 0.00 in0.0 mm 0.00 in0.0 mm
05:05 AM 77.4°F25.2°C 71.8°F22.1°C 83% 3.1 mph ESE5.0 kmh ESE 5.4 mph8.7 kmh 29.80 in1009.1 mb 0.00 in0.0 mm 0.00 in0.0 mm 0.00 in0.0 mm
05:10 AM 77.4°F25.2°C 71.8°F22.1°C 83% 1.6 mph SE2.6 kmh SE 5.4 mph8.7 kmh 29.80 in1009.1 mb 0.00 in0.0 mm 0.00 in0.0 mm 0.00 in0.0 mm
05:15 AM 77.4°F25.2°C 71.5°F21.9°C 82% 2.2 mph SE3.5 kmh SE 5.4 mph8.7 kmh 29.80 in1009.1 mb 0.00 in0.0 mm 0.00 in0.0 mm 0.00 in0.0 mm
05:20 AM 77.4°F25.2°C 71.5°F21.9°C 82% 2.2 mph SE3.5 kmh SE 6.0 mph9.7 kmh 29.80 in1009.1 mb 0.00 in0.0 mm 0.00 in0.0 mm 0.00 in0.0 mm
05:25 AM 77.4°F25.2°C 71.8°F22.1°C 83% 2.2 mph SE3.5 kmh SE 6.9 mph11.1 kmh 29.80 in1009.1 mb 0.00 in0.0 mm 0.00 in0.0 mm 0.00 in0.0 mm
05:30 AM 77.4°F25.2°C 71.8°F22.1°C 83% 3.1 mph SE5.0 kmh SE 6.9 mph11.1 kmh 29.80 in1009.1 mb 0.00 in0.0 mm 0.00 in0.0 mm 0.00 in0.0 mm
05:35 AM 77.4°F25.2°C 71.8°F22.1°C 83% 4.5 mph SE7.2 kmh SE 6.9 mph11.1 kmh 29.80 in1009.1 mb 0.00 in0.0 mm 0.00 in0.0 mm 0.00 in0.0 mm
05:40 AM 77.4°F25.2°C 71.8°F22.1°C 83% 3.1 mph SE5.0 kmh SE 6.9 mph11.1 kmh 29.80 in1009.1 mb 0.00 in0.0 mm 0.00 in0.0 mm 0.00 in0.0 mm
05:45 AM 77.4°F25.2°C 71.8°F22.1°C 83% 3.1 mph SE5.0 kmh SE 6.9 mph11.1 kmh 29.80 in1009.1 mb 0.00 in0.0 mm 0.00 in0.0 mm 0.00 in0.0 mm
05:50 AM 77.4°F25.2°C 71.8°F22.1°C 83% 3.1 mph ESE5.0 kmh ESE 6.0 mph9.7 kmh 29.80 in1009.1 mb 0.00 in0.0 mm 0.00 in0.0 mm 0.00 in0.0 mm
05:55 AM 77.4°F25.2°C 71.8°F22.1°C 83% 3.1 mph ESE5.0 kmh ESE 6.0 mph9.7 kmh 29.80 in1009.1 mb 0.00 in0.0 mm 0.00 in0.0 mm 0.00 in0.0 mm
06:00 AM 77.2°F25.1°C 71.7°F22.1°C 83% 2.2 mph SE3.5 kmh SE 4.5 mph7.2 kmh 29.81 in1009.5 mb 0.00 in0.0 mm 0.00 in0.0 mm 0.00 in0.0 mm
06:05 AM 77.4°F25.2°C 71.8°F22.1°C 83% 1.6 mph SE2.6 kmh SE 4.5 mph7.2 kmh 29.80 in1009.1 mb 0.00 in0.0 mm 0.00 in0.0 mm 0.00 in0.0 mm
06:10 AM 77.2°F25.1°C 71.7°F22.1°C 83% 0.7 mph SE1.1 kmh SE 4.5 mph7.2 kmh 29.81 in1009.5 mb 0.00 in0.0 mm 0.00 in0.0 mm 0.00 in0.0 mm
06:15 AM 77.2°F25.1°C 71.7°F22.1°C 83% 0.7 mph SE1.1 kmh SE 3.8 mph6.1 kmh 29.81 in1009.5 mb 0.00 in0.0 mm 0.00 in0.0 mm 0.00 in0.0 mm
06:20 AM 77.0°F25.0°C 71.5°F21.9°C 83% 1.6 mph SE2.6 kmh SE 3.8 mph6.1 kmh 29.81 in1009.5 mb 0.00 in0.0 mm 0.00 in0.0 mm 0.00 in0.0 mm
06:25 AM 77.2°F25.1°C 71.7°F22.1°C 83% 1.6 mph SE2.6 kmh SE 3.8 mph6.1 kmh 29.82 in1009.8 mb 0.00 in0.0 mm 0.00 in0.0 mm 0.00 in0.0 mm
06:30 AM 77.2°F25.1°C 71.7°F22.1°C 83% 3.1 mph SE5.0 kmh SE 5.4 mph8.7 kmh 29.82 in1009.8 mb 0.00 in0.0 mm 0.00 in0.0 mm 0.00 in0.0 mm
06:35 AM 77.2°F25.1°C 71.7°F22.1°C 83% 2.2 mph SE3.5 kmh SE 5.4 mph8.7 kmh 29.82 in1009.8 mb 0.00 in0.0 mm 0.00 in0.0 mm 0.00 in0.0 mm
06:40 AM 77.2°F25.1°C 71.7°F22.1°C 83% 3.1 mph ESE5.0 kmh ESE 5.4 mph8.7 kmh 29.82 in1009.8 mb 0.00 in0.0 mm 0.00 in0.0 mm 0.00 in0.0 mm
06:45 AM 77.2°F25.1°C 71.7°F22.1°C 83% 2.2 mph E3.5 kmh E 4.5 mph7.2 kmh 29.82 in1009.8 mb 0.00 in0.0 mm 0.00 in0.0 mm 0.00 in0.0 mm
06:50 AM 77.2°F25.1°C 71.7°F22.1°C 83% 3.1 mph E5.0 kmh E 4.5 mph7.2 kmh 29.82 in1009.8 mb 0.00 in0.0 mm 0.00 in0.0 mm 0.00 in0.0 mm
06:55 AM 77.2°F25.1°C 71.7°F22.1°C 83% 3.8 mph E6.1 kmh E 6.0 mph9.7 kmh 29.83 in1010.2 mb 0.00 in0.0 mm 0.00 in0.0 mm 0.00 in0.0 mm
07:00 AM 77.0°F25.0°C 71.5°F21.9°C 83% 3.8 mph ESE6.1 kmh ESE 6.0 mph9.7 kmh 29.82 in1009.8 mb 0.00 in0.0 mm 0.00 in0.0 mm 0.00 in0.0 mm
07:05 AM 77.2°F25.1°C 71.7°F22.1°C 83% 4.5 mph ESE7.2 kmh ESE 6.9 mph11.1 kmh 29.82 in1009.8 mb 0.00 in0.0 mm 0.00 in0.0 mm 0.00 in0.0 mm
07:10 AM 77.4°F25.2°C 71.8°F22.1°C 83% 5.4 mph ESE8.7 kmh ESE 8.3 mph13.4 kmh 29.82 in1009.8 mb 0.00 in0.0 mm 0.00 in0.0 mm 0.00 in0.0 mm
07:15 AM 77.5°F25.3°C 72.0°F22.2°C 83% 3.1 mph ESE5.0 kmh ESE 8.3 mph13.4 kmh 29.83 in1010.2 mb 0.00 in0.0 mm 0.00 in0.0 mm 0.00 in0.0 mm
07:20 AM 77.7°F25.4°C 72.6°F22.6°C 84% 3.8 mph SE6.1 kmh SE 7.6 mph12.2 kmh 29.83 in1010.2 mb 0.00 in0.0 mm 0.00 in0.0 mm 0.00 in0.0 mm
07:25 AM 78.3°F25.7°C 72.7°F22.6°C 83% 3.1 mph SE5.0 kmh SE 7.6 mph12.2 kmh 29.83 in1010.2 mb 0.00 in0.0 mm 0.00 in0.0 mm 0.00 in0.0 mm
07:30 AM 78.8°F26.0°C 73.3°F22.9°C 83% 3.8 mph SE6.1 kmh SE 7.6 mph12.2 kmh 29.83 in1010.2 mb 0.00 in0.0 mm 0.00 in0.0 mm 0.00 in0.0 mm
07:35 AM 79.5°F26.4°C 73.6°F23.1°C 82% 6.0 mph SE9.7 kmh SE 9.8 mph15.8 kmh 29.82 in1009.8 mb 0.00 in0.0 mm 0.00 in0.0 mm 0.00 in0.0 mm
07:40 AM 79.9°F26.6°C 73.9°F23.3°C 82% 2.2 mph SE3.5 kmh SE 9.8 mph15.8 kmh 29.83 in1010.2 mb 0.00 in0.0 mm 0.00 in0.0 mm 0.00 in0.0 mm
07:45 AM 80.4°F26.9°C 74.1°F23.4°C 81% 5.4 mph SE8.7 kmh SE 8.3 mph13.4 kmh 29.82 in1009.8 mb 0.00 in0.0 mm 0.00 in0.0 mm 0.00 in0.0 mm
07:50 AM 81.0°F27.2°C 74.6°F23.7°C 81% 5.4 mph SE8.7 kmh SE 8.3 mph13.4 kmh 29.82 in1009.8 mb 0.00 in0.0 mm 0.00 in0.0 mm 0.00 in0.0 mm
07:55 AM 81.5°F27.5°C 75.2°F24.0°C 81% 4.5 mph SE7.2 kmh SE 8.3 mph13.4 kmh 29.82 in1009.8 mb 0.00 in0.0 mm 0.00 in0.0 mm 0.00 in0.0 mm
08:00 AM 82.4°F28.0°C 75.7°F24.3°C 80% 3.8 mph SE6.1 kmh SE 8.3 mph13.4 kmh 29.83 in1010.2 mb 0.00 in0.0 mm 0.00 in0.0 mm 0.00 in0.0 mm
08:05 AM 82.8°F28.2°C 75.6°F24.2°C 79% 4.5 mph SE7.2 kmh SE 8.3 mph13.4 kmh 29.83 in1010.2 mb 0.00 in0.0 mm 0.00 in0.0 mm 0.00 in0.0 mm
08:10 AM 83.7°F28.7°C 76.5°F24.7°C 79% 3.8 mph SE6.1 kmh SE 8.3 mph13.4 kmh 29.83 in1010.2 mb 0.00 in0.0 mm 0.00 in0.0 mm 0.00 in0.0 mm
08:15 AM 84.4°F29.1°C 76.8°F24.9°C 78% 5.4 mph SE8.7 kmh SE 9.2 mph14.8 kmh 29.84 in1010.5 mb 0.00 in0.0 mm 0.00 in0.0 mm 0.00 in0.0 mm
08:20 AM 84.9°F29.4°C 77.0°F25.0°C 77% 3.8 mph SE6.1 kmh SE 9.2 mph14.8 kmh 29.84 in1010.5 mb 0.00 in0.0 mm 0.00 in0.0 mm 0.00 in0.0 mm
08:25 AM 85.6°F29.8°C 77.3°F25.2°C 76% 4.5 mph SE7.2 kmh SE 7.6 mph12.2 kmh 29.84 in1010.5 mb 0.00 in0.0 mm 0.00 in0.0 mm 0.00 in0.0 mm
08:30 AM 86.2°F30.1°C 77.4°F25.2°C 75% 5.4 mph SE8.7 kmh SE 8.3 mph13.4 kmh 29.84 in1010.5 mb 0.00 in0.0 mm 0.00 in0.0 mm 0.00 in0.0 mm
08:35 AM 86.9°F30.5°C 78.1°F25.6°C 75% 2.2 mph SE3.5 kmh SE 8.3 mph13.4 kmh 29.84 in1010.5 mb 0.01 in0.3 mm 0.12 in3.0 mm 0.01 in0.3 mm
08:40 AM 87.4°F30.8°C 78.2°F25.7°C 74% 3.1 mph SE5.0 kmh SE 8.3 mph13.4 kmh 29.85 in1010.8 mb 0.01 in0.3 mm 0.00 in0.0 mm 0.01 in0.3 mm
08:45 AM 88.3°F31.3°C 78.7°F25.9°C 73% 4.5 mph SE7.2 kmh SE 8.3 mph13.4 kmh 29.85 in1010.8 mb 0.01 in0.3 mm 0.00 in0.0 mm 0.01 in0.3 mm
08:50 AM 88.9°F31.6°C 78.8°F26.0°C 72% 6.9 mph SE11.1 kmh SE 9.2 mph14.8 kmh 29.85 in1010.8 mb 0.01 in0.3 mm 0.00 in0.0 mm 0.01 in0.3 mm
08:55 AM 89.1°F31.7°C 78.9°F26.1°C 72% 5.4 mph SSE8.7 kmh SSE 9.2 mph14.8 kmh 29.86 in1011.2 mb 0.01 in0.3 mm 0.00 in0.0 mm 0.01 in0.3 mm
09:00 AM 89.6°F32.0°C 79.0°F26.1°C 71% 6.0 mph SSE9.7 kmh SSE 10.7 mph17.2 kmh 29.85 in1010.8 mb 0.01 in0.3 mm 0.00 in0.0 mm 0.01 in0.3 mm
09:05 AM 90.0°F32.2°C 79.4°F26.3°C 71% 6.9 mph SE11.1 kmh SE 10.7 mph17.2 kmh 29.86 in1011.2 mb 0.01 in0.3 mm 0.00 in0.0 mm 0.01 in0.3 mm
09:10 AM 90.3°F32.4°C 79.3°F26.3°C 70% 6.0 mph SSE9.7 kmh SSE 9.8 mph15.8 kmh 29.85 in1010.8 mb 0.01 in0.3 mm 0.00 in0.0 mm 0.01 in0.3 mm
09:15 AM 90.9°F32.7°C 79.8°F26.6°C 70% 7.6 mph SSE12.2 kmh SSE 9.8 mph15.8 kmh 29.86 in1011.2 mb 0.01 in0.3 mm 0.00 in0.0 mm 0.01 in0.3 mm
09:20 AM 91.2°F32.9°C 79.7°F26.5°C 69% 5.4 mph ESE8.7 kmh ESE 10.7 mph17.2 kmh 29.86 in1011.2 mb 0.01 in0.3 mm 0.00 in0.0 mm 0.01 in0.3 mm
09:25 AM 91.8°F33.2°C 79.8°F26.6°C 68% 6.9 mph ESE11.1 kmh ESE 10.7 mph17.2 kmh 29.86 in1011.2 mb 0.01 in0.3 mm 0.00 in0.0 mm 0.01 in0.3 mm
09:30 AM 92.1°F33.4°C 80.1°F26.7°C 68% 5.4 mph ESE8.7 kmh ESE 10.7 mph17.2 kmh 29.85 in1010.8 mb 0.01 in0.3 mm 0.00 in0.0 mm 0.01 in0.3 mm
09:35 AM 92.7°F33.7°C 80.2°F26.8°C 67% 6.9 mph SE11.1 kmh SE 10.7 mph17.2 kmh 29.85 in1010.8 mb 0.00 in0.0 mm 0.00 in0.0 mm 0.01 in0.3 mm
09:40 AM 92.8°F33.8°C 80.4°F26.9°C 67% 6.9 mph SE11.1 kmh SE 9.8 mph15.8 kmh 29.85 in1010.8 mb 0.00 in0.0 mm 0.00 in0.0 mm 0.01 in0.3 mm
09:45 AM 93.4°F34.1°C 80.4°F26.9°C 66% 6.9 mph SE11.1 kmh SE 9.8 mph15.8 kmh 29.85 in1010.8 mb 0.00 in0.0 mm 0.00 in0.0 mm 0.01 in0.3 mm
09:50 AM 93.9°F34.4°C 80.5°F26.9°C 65% 5.4 mph ESE8.7 kmh ESE 12.1 mph19.5 kmh 29.85 in1010.8 mb 0.00 in0.0 mm 0.00 in0.0 mm 0.01 in0.3 mm
09:55 AM 94.3°F34.6°C 80.8°F27.1°C 65% 7.6 mph ESE12.2 kmh ESE 12.1 mph19.5 kmh 29.85 in1010.8 mb 0.00 in0.0 mm 0.00 in0.0 mm 0.01 in0.3 mm
10:00 AM 94.8°F34.9°C 80.8°F27.1°C 64% 6.9 mph SE11.1 kmh SE 12.1 mph19.5 kmh 29.85 in1010.8 mb 0.00 in0.0 mm 0.00 in0.0 mm 0.01 in0.3 mm
10:10 AM 95.7°F35.4°C 81.2°F27.3°C 63% 8.3 mph SE13.4 kmh SE 11.4 mph18.3 kmh 29.86 in1011.2 mb 0.00 in0.0 mm 0.00 in0.0 mm 0.01 in0.3 mm
10:15 AM 96.1°F35.6°C 81.0°F27.2°C 62% 9.2 mph ESE14.8 kmh ESE 11.4 mph18.3 kmh 29.86 in1011.2 mb 0.00 in0.0 mm 0.00 in0.0 mm 0.01 in0.3 mm
10:20 AM 96.6°F35.9°C 81.1°F27.3°C 61% 6.9 mph SE11.1 kmh SE 12.1 mph19.5 kmh 29.86 in1011.2 mb 0.00 in0.0 mm 0.00 in0.0 mm 0.01 in0.3 mm
10:25 AM 97.0°F36.1°C 80.9°F27.2°C 60% 9.8 mph SE15.8 kmh SE 13.0 mph20.9 kmh 29.85 in1010.8 mb 0.00 in0.0 mm 0.00 in0.0 mm 0.01 in0.3 mm
10:30 AM 96.6°F35.9°C 80.0°F26.7°C 59% 9.2 mph ESE14.8 kmh ESE 15.9 mph25.6 kmh 29.85 in1010.8 mb 0.00 in0.0 mm 0.00 in0.0 mm 0.01 in0.3 mm
10:35 AM 96.4°F35.8°C 79.9°F26.6°C 59% 10.7 mph E17.2 kmh E 15.9 mph25.6 kmh 29.85 in1010.8 mb 0.00 in0.0 mm 0.00 in0.0 mm 0.01 in0.3 mm
10:40 AM 96.6°F35.9°C 80.0°F26.7°C 59% 7.6 mph ESE12.2 kmh ESE 14.5 mph23.3 kmh 29.85 in1010.8 mb 0.00 in0.0 mm 0.00 in0.0 mm 0.01 in0.3 mm
10:45 AM 97.2°F36.2°C 80.5°F26.9°C 59% 7.6 mph SE12.2 kmh SE 14.5 mph23.3 kmh 29.85 in1010.8 mb 0.00 in0.0 mm 0.00 in0.0 mm 0.01 in0.3 mm
10:50 AM 97.9°F36.6°C 81.2°F27.3°C 59% 7.6 mph SE12.2 kmh SE 10.7 mph17.2 kmh 29.85 in1010.8 mb 0.00 in0.0 mm 0.00 in0.0 mm 0.01 in0.3 mm
10:55 AM 98.2°F36.8°C 81.0°F27.2°C 58% 8.3 mph SE13.4 kmh SE 12.1 mph19.5 kmh 29.86 in1011.2 mb 0.00 in0.0 mm 0.00 in0.0 mm 0.01 in0.3 mm
11:00 AM 97.7°F36.5°C 80.5°F26.9°C 58% 6.0 mph SE9.7 kmh SE 12.1 mph19.5 kmh 29.86 in1011.2 mb 0.00 in0.0 mm 0.00 in0.0 mm 0.01 in0.3 mm
11:05 AM 98.2°F36.8°C 81.0°F27.2°C 58% 9.2 mph SE14.8 kmh SE 15.2 mph24.5 kmh 29.85 in1010.8 mb 0.00 in0.0 mm 0.00 in0.0 mm 0.01 in0.3 mm
11:10 AM 98.6°F37.0°C 81.4°F27.4°C 58% 7.6 mph ESE12.2 kmh ESE 15.2 mph24.5 kmh 29.86 in1011.2 mb 0.00 in0.0 mm 0.00 in0.0 mm 0.01 in0.3 mm
11:15 AM 99.0°F37.2°C 81.2°F27.3°C 57% 8.3 mph ESE13.4 kmh ESE 16.8 mph27.0 kmh 29.85 in1010.8 mb 0.00 in0.0 mm 0.00 in0.0 mm 0.01 in0.3 mm
11:20 AM 99.1°F37.3°C 81.3°F27.4°C 57% 6.9 mph SE11.1 kmh SE 16.8 mph27.0 kmh 29.85 in1010.8 mb 0.00 in0.0 mm 0.00 in0.0 mm 0.01 in0.3 mm
11:25 AM 99.3°F37.4°C 81.0°F27.2°C 56% 8.3 mph SE13.4 kmh SE 13.6 mph21.9 kmh 29.86 in1011.2 mb 0.00 in0.0 mm 0.00 in0.0 mm 0.01 in0.3 mm
11:30 AM 98.8°F37.1°C 80.5°F26.9°C 56% 6.9 mph SSE11.1 kmh SSE 14.5 mph23.3 kmh 29.85 in1010.8 mb 0.00 in0.0 mm 0.00 in0.0 mm 0.01 in0.3 mm
11:35 AM 99.0°F37.2°C 81.2°F27.3°C 57% 6.9 mph SE11.1 kmh SE 14.5 mph23.3 kmh 29.85 in1010.8 mb 0.00 in0.0 mm 0.00 in0.0 mm 0.01 in0.3 mm
11:40 AM 99.9°F37.7°C 81.5°F27.5°C 56% 7.6 mph SE12.2 kmh SE 13.6 mph21.9 kmh 29.85 in1010.8 mb 0.00 in0.0 mm 0.00 in0.0 mm 0.01 in0.3 mm
11:45 AM 99.0°F37.2°C 80.6°F27.0°C 56% 9.2 mph SE14.8 kmh SE 12.1 mph19.5 kmh 29.85 in1010.8 mb 0.00 in0.0 mm 0.00 in0.0 mm 0.01 in0.3 mm
11:50 AM 99.3°F37.4°C 81.0°F27.2°C 56% 9.8 mph SE15.8 kmh SE 16.8 mph27.0 kmh 29.85 in1010.8 mb 0.00 in0.0 mm 0.00 in0.0 mm 0.01 in0.3 mm
11:55 AM 99.7°F37.6°C 80.7°F27.1°C 55% 9.8 mph SE15.8 kmh SE 16.8 mph27.0 kmh 29.85 in1010.8 mb 0.00 in0.0 mm 0.00 in0.0 mm 0.01 in0.3 mm
12:00 PM 99.3°F37.4°C 80.4°F26.9°C 55% 8.3 mph SE13.4 kmh SE 13.6 mph21.9 kmh 29.85 in1010.8 mb 0.00 in0.0 mm 0.00 in0.0 mm 0.01 in0.3 mm
12:05 PM 99.1°F37.3°C 79.7°F26.5°C 54% 9.8 mph SE15.8 kmh SE 15.9 mph25.6 kmh 29.85 in1010.8 mb 0.00 in0.0 mm 0.00 in0.0 mm 0.01 in0.3 mm
12:10 PM 99.0°F37.2°C 80.6°F27.0°C 56% 8.3 mph SE13.4 kmh SE 15.9 mph25.6 kmh 29.85 in1010.8 mb 0.00 in0.0 mm 0.00 in0.0 mm 0.01 in0.3 mm
12:15 PM 99.7°F37.6°C 80.2°F26.8°C 54% 7.6 mph SE12.2 kmh SE 15.9 mph25.6 kmh 29.85 in1010.8 mb 0.00 in0.0 mm 0.00 in0.0 mm 0.01 in0.3 mm
12:20 PM 100.2°F37.9°C 80.7°F27.1°C 54% 8.3 mph SE13.4 kmh SE 15.9 mph25.6 kmh 29.84 in1010.5 mb 0.00 in0.0 mm 0.00 in0.0 mm 0.01 in0.3 mm
12:25 PM 100.6°F38.1°C 80.4°F26.9°C 53% 9.8 mph SE15.8 kmh SE 13.6 mph21.9 kmh 29.85 in1010.8 mb 0.00 in0.0 mm 0.00 in0.0 mm 0.01 in0.3 mm
12:30 PM 100.4°F38.0°C 80.3°F26.8°C 53% 5.4 mph SE8.7 kmh SE 13.6 mph21.9 kmh 29.85 in1010.8 mb 0.00 in0.0 mm 0.00 in0.0 mm 0.01 in0.3 mm
12:35 PM 101.1°F38.4°C 80.9°F27.2°C 53% 6.9 mph SE11.1 kmh SE 15.2 mph24.5 kmh 29.85 in1010.8 mb 0.00 in0.0 mm 0.00 in0.0 mm 0.01 in0.3 mm
12:40 PM 101.3°F38.5°C 81.1°F27.3°C 53% 7.6 mph SE12.2 kmh SE 15.2 mph24.5 kmh 29.84 in1010.5 mb 0.00 in0.0 mm 0.00 in0.0 mm 0.01 in0.3 mm
12:45 PM 101.7°F38.7°C 80.8°F27.1°C 52% 10.7 mph SE17.2 kmh SE 13.0 mph20.9 kmh 29.85 in1010.8 mb 0.00 in0.0 mm 0.00 in0.0 mm 0.01 in0.3 mm
12:50 PM 101.1°F38.4°C 80.3°F26.8°C 52% 6.9 mph SSE11.1 kmh SSE 13.0 mph20.9 kmh 29.85 in1010.8 mb 0.00 in0.0 mm 0.00 in0.0 mm 0.01 in0.3 mm
12:55 PM 101.5°F38.6°C 80.7°F27.1°C 52% 9.2 mph SSE14.8 kmh SSE 13.0 mph20.9 kmh 29.85 in1010.8 mb 0.00 in0.0 mm 0.00 in0.0 mm 0.01 in0.3 mm
01:00 PM 101.5°F38.6°C 80.7°F27.1°C 52% 4.5 mph SE7.2 kmh SE 13.0 mph20.9 kmh 29.85 in1010.8 mb 0.00 in0.0 mm 0.00 in0.0 mm 0.01 in0.3 mm
01:05 PM 102.0°F38.9°C 80.6°F27.0°C 51% 6.0 mph SE9.7 kmh SE 12.1 mph19.5 kmh 29.85 in1010.8 mb 0.00 in0.0 mm 0.00 in0.0 mm 0.01 in0.3 mm
01:10 PM 102.0°F38.9°C 80.6°F27.0°C 51% 9.8 mph SE15.8 kmh SE 14.5 mph23.3 kmh 29.84 in1010.5 mb 0.00 in0.0 mm 0.00 in0.0 mm 0.01 in0.3 mm
01:15 PM 101.5°F38.6°C 80.1°F26.7°C 51% 9.2 mph SSE14.8 kmh SSE 14.5 mph23.3 kmh 29.84 in1010.5 mb 0.00 in0.0 mm 0.00 in0.0 mm 0.01 in0.3 mm
01:20 PM 100.9°F38.3°C 79.6°F26.4°C 51% 9.2 mph SE14.8 kmh SE 15.2 mph24.5 kmh 29.84 in1010.5 mb 0.00 in0.0 mm 0.00 in0.0 mm 0.01 in0.3 mm
01:25 PM 100.9°F38.3°C 80.2°F26.8°C 52% 5.4 mph SE8.7 kmh SE 15.2 mph24.5 kmh 29.84 in1010.5 mb 0.00 in0.0 mm 0.00 in0.0 mm 0.01 in0.3 mm
01:30 PM 101.7°F38.7°C 80.3°F26.8°C 51% 8.3 mph SSE13.4 kmh SSE 18.3 mph29.5 kmh 29.84 in1010.5 mb 0.00 in0.0 mm 0.00 in0.0 mm 0.01 in0.3 mm
01:35 PM 101.3°F38.5°C 79.3°F26.3°C 50% 9.2 mph SSE14.8 kmh SSE 18.3 mph29.5 kmh 29.84 in1010.5 mb 0.00 in0.0 mm 0.00 in0.0 mm 0.01 in0.3 mm
01:40 PM 101.3°F38.5°C 79.9°F26.6°C 51% 9.8 mph SE15.8 kmh SE 15.9 mph25.6 kmh 29.84 in1010.5 mb 0.00 in0.0 mm 0.00 in0.0 mm 0.01 in0.3 mm
01:45 PM 101.8°F38.8°C 79.8°F26.6°C 50% 9.8 mph SE15.8 kmh SE 15.9 mph25.6 kmh 29.84 in1010.5 mb 0.00 in0.0 mm 0.00 in0.0 mm 0.01 in0.3 mm
01:50 PM 101.8°F38.8°C 79.8°F26.6°C 50% 9.2 mph SSE14.8 kmh SSE 19.0 mph30.6 kmh 29.84 in1010.5 mb 0.00 in0.0 mm 0.00 in0.0 mm 0.01 in0.3 mm
01:55 PM 102.2°F39.0°C 80.1°F26.7°C 50% 6.9 mph SSE11.1 kmh SSE 19.0 mph30.6 kmh 29.83 in1010.2 mb 0.00 in0.0 mm 0.00 in0.0 mm 0.01 in0.3 mm
02:00 PM 102.9°F39.4°C 80.2°F26.8°C 49% 7.6 mph SSE12.2 kmh SSE 13.0 mph20.9 kmh 29.83 in1010.2 mb 0.00 in0.0 mm 0.00 in0.0 mm 0.01 in0.3 mm
02:05 PM 103.1°F39.5°C 80.3°F26.8°C 49% 6.9 mph SSE11.1 kmh SSE 12.1 mph19.5 kmh 29.83 in1010.2 mb 0.00 in0.0 mm 0.00 in0.0 mm 0.01 in0.3 mm
02:10 PM 103.5°F39.7°C 80.0°F26.7°C 48% 9.8 mph SSE15.8 kmh SSE 13.6 mph21.9 kmh 29.83 in1010.2 mb 0.00 in0.0 mm 0.00 in0.0 mm 0.01 in0.3 mm
02:15 PM 103.6°F39.8°C 80.2°F26.8°C 48% 4.5 mph SSE7.2 kmh SSE 13.6 mph21.9 kmh 29.83 in1010.2 mb 0.00 in0.0 mm 0.00 in0.0 mm 0.01 in0.3 mm
02:20 PM 103.8°F39.9°C 80.4°F26.9°C 48% 5.4 mph SE8.7 kmh SE 13.6 mph21.9 kmh 29.83 in1010.2 mb 0.00 in0.0 mm 0.00 in0.0 mm 0.01 in0.3 mm
02:25 PM 104.4°F40.2°C 80.9°F27.2°C 48% 8.3 mph SE13.4 kmh SE 13.6 mph21.9 kmh 29.82 in1009.8 mb 0.00 in0.0 mm 0.00 in0.0 mm 0.01 in0.3 mm
02:30 PM 104.5°F40.3°C 80.4°F26.9°C 47% 7.6 mph SSE12.2 kmh SSE 13.0 mph20.9 kmh 29.83 in1010.2 mb 0.00 in0.0 mm 0.00 in0.0 mm 0.01 in0.3 mm
02:35 PM 104.5°F40.3°C 80.4°F26.9°C 47% 10.7 mph SE17.2 kmh SE 15.2 mph24.5 kmh 29.82 in1009.8 mb 0.00 in0.0 mm 0.00 in0.0 mm 0.01 in0.3 mm
02:40 PM 102.9°F39.4°C 78.9°F26.1°C 47% 8.3 mph SSE13.4 kmh SSE 15.9 mph25.6 kmh 29.82 in1009.8 mb 0.00 in0.0 mm 0.00 in0.0 mm 0.01 in0.3 mm
02:45 PM 101.1°F38.4°C 78.5°F25.8°C 49% 7.6 mph S12.2 kmh S 15.9 mph25.6 kmh 29.81 in1009.5 mb 0.00 in0.0 mm 0.00 in0.0 mm 0.01 in0.3 mm
02:50 PM 100.8°F38.2°C 78.2°F25.7°C 49% 7.6 mph SSE12.2 kmh SSE 13.0 mph20.9 kmh 29.81 in1009.5 mb 0.00 in0.0 mm 0.00 in0.0 mm 0.01 in0.3 mm
02:55 PM 99.0°F37.2°C 77.2°F25.1°C 50% 7.6 mph SSE12.2 kmh SSE 13.0 mph20.9 kmh 29.81 in1009.5 mb 0.00 in0.0 mm 0.00 in0.0 mm 0.01 in0.3 mm
03:00 PM 98.1°F36.7°C 78.1°F25.6°C 53% 8.3 mph SE13.4 kmh SE 13.0 mph20.9 kmh 29.81 in1009.5 mb 0.00 in0.0 mm 0.00 in0.0 mm 0.01 in0.3 mm
03:05 PM 97.9°F36.6°C 77.4°F25.2°C 52% 3.8 mph SE6.1 kmh SE 11.4 mph18.3 kmh 29.80 in1009.1 mb 0.00 in0.0 mm 0.00 in0.0 mm 0.01 in0.3 mm
03:10 PM 97.2°F36.2°C 77.3°F25.2°C 53% 5.4 mph SSE8.7 kmh SSE 10.7 mph17.2 kmh 29.80 in1009.1 mb 0.00 in0.0 mm 0.00 in0.0 mm 0.01 in0.3 mm
03:15 PM 95.9°F35.5°C 76.7°F24.8°C 54% 6.9 mph SSE11.1 kmh SSE 12.1 mph19.5 kmh 29.80 in1009.1 mb 0.00 in0.0 mm 0.00 in0.0 mm 0.01 in0.3 mm
03:20 PM 95.4°F35.2°C 76.7°F24.8°C 55% 6.9 mph SSE11.1 kmh SSE 12.1 mph19.5 kmh 29.80 in1009.1 mb 0.00 in0.0 mm 0.00 in0.0 mm 0.01 in0.3 mm
03:25 PM 94.6°F34.8°C 77.1°F25.1°C 57% 6.9 mph S11.1 kmh S 12.1 mph19.5 kmh 29.80 in1009.1 mb 0.00 in0.0 mm 0.00 in0.0 mm 0.01 in0.3 mm
03:30 PM 94.3°F34.6°C 76.8°F24.9°C 57% 6.9 mph S11.1 kmh S 12.1 mph19.5 kmh 29.80 in1009.1 mb 0.00 in0.0 mm 0.00 in0.0 mm 0.01 in0.3 mm
03:35 PM 93.4°F34.1°C 77.0°F25.0°C 59% 7.6 mph S12.2 kmh S 12.1 mph19.5 kmh 29.80 in1009.1 mb 0.00 in0.0 mm 0.00 in0.0 mm 0.01 in0.3 mm
03:40 PM 92.8°F33.8°C 76.5°F24.7°C 59% 6.9 mph S11.1 kmh S 10.7 mph17.2 kmh 29.80 in1009.1 mb 0.00 in0.0 mm 0.00 in0.0 mm 0.01 in0.3 mm
03:45 PM 91.2°F32.9°C 76.0°F24.4°C 61% 1.6 mph SSE2.6 kmh SSE 9.8 mph15.8 kmh 29.80 in1009.1 mb 0.01 in0.3 mm 0.12 in3.0 mm 0.02 in0.5 mm
03:50 PM 90.3°F32.4°C 76.1°F24.5°C 63% 9.8 mph SSE15.8 kmh SSE 13.0 mph20.9 kmh 29.80 in1009.1 mb 0.01 in0.3 mm 0.00 in0.0 mm 0.02 in0.5 mm
03:55 PM 89.2°F31.8°C 75.5°F24.2°C 64% 8.3 mph S13.4 kmh S 15.2 mph24.5 kmh 29.80 in1009.1 mb 0.01 in0.3 mm 0.00 in0.0 mm 0.02 in0.5 mm
04:00 PM 88.5°F31.4°C 75.8°F24.3°C 66% 12.1 mph S19.5 kmh S 15.2 mph24.5 kmh 29.80 in1009.1 mb 0.01 in0.3 mm 0.00 in0.0 mm 0.02 in0.5 mm
04:05 PM 88.5°F31.4°C 75.8°F24.3°C 66% 10.7 mph S17.2 kmh S 15.9 mph25.6 kmh 29.80 in1009.1 mb 0.01 in0.3 mm 0.00 in0.0 mm 0.02 in0.5 mm
04:10 PM 89.1°F31.7°C 76.3°F24.6°C 66% 7.6 mph S12.2 kmh S 15.9 mph25.6 kmh 29.80 in1009.1 mb 0.01 in0.3 mm 0.00 in0.0 mm 0.02 in0.5 mm
04:15 PM 90.1°F32.3°C 76.9°F24.9°C 65% 6.9 mph S11.1 kmh S 14.5 mph23.3 kmh 29.80 in1009.1 mb 0.01 in0.3 mm 0.00 in0.0 mm 0.02 in0.5 mm
04:20 PM 91.2°F32.9°C 77.4°F25.2°C 64% 4.5 mph S7.2 kmh S 12.1 mph19.5 kmh 29.79 in1008.8 mb 0.01 in0.3 mm 0.00 in0.0 mm 0.02 in0.5 mm
04:25 PM 91.6°F33.1°C 77.3°F25.2°C 63% 7.6 mph SSW12.2 kmh SSW 10.7 mph17.2 kmh 29.80 in1009.1 mb 0.01 in0.3 mm 0.00 in0.0 mm 0.02 in0.5 mm
04:30 PM 92.5°F33.6°C 77.6°F25.3°C 62% 10.7 mph SW17.2 kmh SW 13.6 mph21.9 kmh 29.79 in1008.8 mb 0.01 in0.3 mm 0.00 in0.0 mm 0.02 in0.5 mm
04:35 PM 93.7°F34.3°C 78.3°F25.7°C 61% 6.9 mph SW11.1 kmh SW 13.6 mph21.9 kmh 29.79 in1008.8 mb 0.01 in0.3 mm 0.00 in0.0 mm 0.02 in0.5 mm
04:40 PM 94.1°F34.5°C 78.2°F25.7°C 60% 9.2 mph SW14.8 kmh SW 13.6 mph21.9 kmh 29.79 in1008.8 mb 0.01 in0.3 mm 0.00 in0.0 mm 0.02 in0.5 mm
04:45 PM 93.7°F34.3°C 77.8°F25.4°C 60% 8.3 mph SW13.4 kmh SW 13.6 mph21.9 kmh 29.80 in1009.1 mb 0.00 in0.0 mm 0.00 in0.0 mm 0.02 in0.5 mm
04:50 PM 93.4°F34.1°C 77.5°F25.3°C 60% 5.4 mph SW8.7 kmh SW 12.1 mph19.5 kmh 29.79 in1008.8 mb 0.00 in0.0 mm 0.00 in0.0 mm 0.02 in0.5 mm
04:55 PM 93.6°F34.2°C 77.7°F25.4°C 60% 6.0 mph SW9.7 kmh SW 10.7 mph17.2 kmh 29.80 in1009.1 mb 0.00 in0.0 mm 0.00 in0.0 mm 0.02 in0.5 mm
05:00 PM 93.6°F34.2°C 78.2°F25.7°C 61% 4.5 mph SW7.2 kmh SW 9.8 mph15.8 kmh 29.79 in1008.8 mb 0.00 in0.0 mm 0.00 in0.0 mm 0.02 in0.5 mm
05:05 PM 94.5°F34.7°C 78.5°F25.8°C 60% 4.5 mph SW7.2 kmh SW 9.8 mph15.8 kmh 29.79 in1008.8 mb 0.00 in0.0 mm 0.00 in0.0 mm 0.02 in0.5 mm
05:10 PM 95.9°F35.5°C 79.4°F26.3°C 59% 3.1 mph S5.0 kmh S 7.6 mph12.2 kmh 29.79 in1008.8 mb 0.00 in0.0 mm 0.00 in0.0 mm 0.02 in0.5 mm
05:15 PM 97.0°F36.1°C 79.8°F26.6°C 58% 5.4 mph S8.7 kmh S 9.8 mph15.8 kmh 29.79 in1008.8 mb 0.00 in0.0 mm 0.00 in0.0 mm 0.02 in0.5 mm
05:20 PM 97.2°F36.2°C 79.5°F26.4°C 57% 4.5 mph S7.2 kmh S 9.8 mph15.8 kmh 29.79 in1008.8 mb 0.00 in0.0 mm 0.00 in0.0 mm 0.02 in0.5 mm
05:25 PM 96.4°F35.8°C 78.8°F26.0°C 57% 2.2 mph SSE3.5 kmh SSE 7.6 mph12.2 kmh 29.79 in1008.8 mb 0.00 in0.0 mm 0.00 in0.0 mm 0.02 in0.5 mm
05:30 PM 95.5°F35.3°C 78.5°F25.8°C 58% 1.6 mph SSE2.6 kmh SSE 6.9 mph11.1 kmh 29.78 in1008.5 mb 0.00 in0.0 mm 0.00 in0.0 mm 0.02 in0.5 mm
05:35 PM 94.5°F34.7°C 78.0°F25.6°C 59% 4.5 mph SE7.2 kmh SE 7.6 mph12.2 kmh 29.79 in1008.8 mb 0.00 in0.0 mm 0.00 in0.0 mm 0.02 in0.5 mm
05:40 PM 93.6°F34.2°C 77.7°F25.4°C 60% 4.5 mph SSE7.2 kmh SSE 11.4 mph18.3 kmh 29.79 in1008.8 mb 0.00 in0.0 mm 0.00 in0.0 mm 0.02 in0.5 mm
05:45 PM 91.9°F33.3°C 76.6°F24.8°C 61% 5.4 mph S8.7 kmh S 19.7 mph31.7 kmh 29.79 in1008.8 mb 0.11 in2.8 mm 1.32 in33.5 mm 0.13 in3.3 mm
05:50 PM 90.1°F32.3°C 75.9°F24.4°C 63% 2.2 mph SW3.5 kmh SW 19.7 mph31.7 kmh 29.80 in1009.1 mb 0.26 in6.6 mm 1.80 in45.7 mm 0.28 in7.1 mm
05:55 PM 88.9°F31.6°C 76.1°F24.5°C 66% 4.5 mph NNW7.2 kmh NNW 15.2 mph24.5 kmh 29.79 in1008.8 mb 0.31 in7.9 mm 0.60 in15.2 mm 0.33 in8.4 mm
06:00 PM 88.0°F31.1°C 75.7°F24.3°C 67% 3.8 mph N6.1 kmh N 15.2 mph24.5 kmh 29.79 in1008.8 mb 0.31 in7.9 mm 0.00 in0.0 mm 0.33 in8.4 mm
06:05 PM 87.4°F30.8°C 75.6°F24.2°C 68% 2.2 mph NE3.5 kmh NE 8.3 mph13.4 kmh 29.79 in1008.8 mb 0.31 in7.9 mm 0.00 in0.0 mm 0.33 in8.4 mm
06:10 PM 87.3°F30.7°C 75.9°F24.4°C 69% Calm Calm 6.0 mph9.7 kmh 29.80 in1009.1 mb 0.31 in7.9 mm 0.00 in0.0 mm 0.33 in8.4 mm
06:15 PM 87.3°F30.7°C 75.9°F24.4°C 69% 1.6 mph NE2.6 kmh NE 3.8 mph6.1 kmh 29.79 in1008.8 mb 0.31 in7.9 mm 0.00 in0.0 mm 0.33 in8.4 mm
06:20 PM 87.6°F30.9°C 76.3°F24.6°C 69% 1.6 mph N2.6 kmh N 3.1 mph5.0 kmh 29.79 in1008.8 mb 0.31 in7.9 mm 0.00 in0.0 mm 0.33 in8.4 mm
06:25 PM 87.8°F31.0°C 76.4°F24.7°C 69% 2.2 mph N3.5 kmh N 3.8 mph6.1 kmh 29.79 in1008.8 mb 0.31 in7.9 mm 0.00 in0.0 mm 0.33 in8.4 mm
06:30 PM 88.3°F31.3°C 77.0°F25.0°C 69% 1.6 mph NNW2.6 kmh NNW 3.8 mph6.1 kmh 29.79 in1008.8 mb 0.31 in7.9 mm 0.00 in0.0 mm 0.33 in8.4 mm
06:35 PM 89.1°F31.7°C 77.2°F25.1°C 68% 3.8 mph WSW6.1 kmh WSW 6.0 mph9.7 kmh 29.79 in1008.8 mb 0.31 in7.9 mm 0.00 in0.0 mm 0.33 in8.4 mm
06:40 PM 89.4°F31.9°C 77.5°F25.3°C 68% 3.1 mph W5.0 kmh W 6.9 mph11.1 kmh 29.80 in1009.1 mb 0.31 in7.9 mm 0.00 in0.0 mm 0.33 in8.4 mm
06:45 PM 89.8°F32.1°C 77.4°F25.2°C 67% 4.5 mph W7.2 kmh W 6.9 mph11.1 kmh 29.80 in1009.1 mb 0.20 in5.1 mm 0.00 in0.0 mm 0.33 in8.4 mm
06:50 PM 90.0°F32.2°C 77.6°F25.3°C 67% 8.3 mph SW13.4 kmh SW 9.8 mph15.8 kmh 29.80 in1009.1 mb 0.05 in1.3 mm 0.00 in0.0 mm 0.33 in8.4 mm
06:55 PM 90.0°F32.2°C 77.6°F25.3°C 67% 5.4 mph SSW8.7 kmh SSW 10.7 mph17.2 kmh 29.80 in1009.1 mb 0.00 in0.0 mm 0.00 in0.0 mm 0.33 in8.4 mm
07:00 PM 90.1°F32.3°C 77.8°F25.4°C 67% 9.8 mph SSW15.8 kmh SSW 13.0 mph20.9 kmh 29.80 in1009.1 mb 0.00 in0.0 mm 0.00 in0.0 mm 0.33 in8.4 mm
07:05 PM 90.0°F32.2°C 77.2°F25.1°C 66% 8.3 mph SW13.4 kmh SW 14.5 mph23.3 kmh 29.80 in1009.1 mb 0.00 in0.0 mm 0.00 in0.0 mm 0.33 in8.4 mm
07:10 PM 89.6°F32.0°C 76.8°F24.9°C 66% 7.6 mph SW12.2 kmh SW 14.5 mph23.3 kmh 29.81 in1009.5 mb 0.00 in0.0 mm 0.00 in0.0 mm 0.33 in8.4 mm
07:15 PM 89.2°F31.8°C 76.5°F24.7°C 66% 8.3 mph SW13.4 kmh SW 13.0 mph20.9 kmh 29.80 in1009.1 mb 0.00 in0.0 mm 0.00 in0.0 mm 0.33 in8.4 mm
07:20 PM 88.9°F31.6°C 76.6°F24.8°C 67% 10.7 mph SW17.2 kmh SW 13.6 mph21.9 kmh 29.80 in1009.1 mb 0.00 in0.0 mm 0.00 in0.0 mm 0.33 in8.4 mm
07:25 PM 88.5°F31.4°C 76.2°F24.6°C 67% 6.0 mph SW9.7 kmh SW 13.6 mph21.9 kmh 29.81 in1009.5 mb 0.00 in0.0 mm 0.00 in0.0 mm 0.33 in8.4 mm
07:30 PM 88.3°F31.3°C 76.5°F24.7°C 68% 7.6 mph SW12.2 kmh SW 13.6 mph21.9 kmh 29.81 in1009.5 mb 0.00 in0.0 mm 0.00 in0.0 mm 0.33 in8.4 mm
07:35 PM 88.0°F31.1°C 76.2°F24.6°C 68% 10.7 mph SW17.2 kmh SW 13.6 mph21.9 kmh 29.81 in1009.5 mb 0.00 in0.0 mm 0.00 in0.0 mm 0.33 in8.4 mm
07:40 PM 87.6°F30.9°C 75.8°F24.3°C 68% 9.8 mph SW15.8 kmh SW 12.1 mph19.5 kmh 29.81 in1009.5 mb 0.00 in0.0 mm 0.00 in0.0 mm 0.33 in8.4 mm
07:45 PM 87.3°F30.7°C 75.9°F24.4°C 69% 8.3 mph SW13.4 kmh SW 12.1 mph19.5 kmh 29.81 in1009.5 mb 0.00 in0.0 mm 0.00 in0.0 mm 0.33 in8.4 mm
07:50 PM 87.1°F30.6°C 75.7°F24.3°C 69% 7.6 mph SW12.2 kmh SW 11.4 mph18.3 kmh 29.81 in1009.5 mb 0.00 in0.0 mm 0.00 in0.0 mm 0.33 in8.4 mm
07:55 PM 86.7°F30.4°C 75.4°F24.1°C 69% 6.0 mph SW9.7 kmh SW 11.4 mph18.3 kmh 29.81 in1009.5 mb 0.00 in0.0 mm 0.00 in0.0 mm 0.33 in8.4 mm
08:00 PM 86.2°F30.1°C 74.9°F23.8°C 69% 6.9 mph SW11.1 kmh SW 9.2 mph14.8 kmh 29.82 in1009.8 mb 0.00 in0.0 mm 0.00 in0.0 mm 0.33 in8.4 mm
08:05 PM 86.0°F30.0°C 75.1°F23.9°C 70% 5.4 mph SW8.7 kmh SW 9.2 mph14.8 kmh 29.82 in1009.8 mb 0.00 in0.0 mm 0.00 in0.0 mm 0.33 in8.4 mm
08:10 PM 85.6°F29.8°C 74.8°F23.8°C 70% 5.4 mph SW8.7 kmh SW 9.2 mph14.8 kmh 29.82 in1009.8 mb 0.00 in0.0 mm 0.00 in0.0 mm 0.33 in8.4 mm
08:15 PM 85.3°F29.6°C 74.9°F23.8°C 71% 5.4 mph SW8.7 kmh SW 9.2 mph14.8 kmh 29.82 in1009.8 mb 0.00 in0.0 mm 0.00 in0.0 mm 0.33 in8.4 mm
08:20 PM 84.9°F29.4°C 74.5°F23.6°C 71% 6.9 mph SW11.1 kmh SW 9.2 mph14.8 kmh 29.82 in1009.8 mb 0.00 in0.0 mm 0.00 in0.0 mm 0.33 in8.4 mm
08:25 PM 84.7°F29.3°C 74.4°F23.6°C 71% 5.4 mph SW8.7 kmh SW 8.3 mph13.4 kmh 29.82 in1009.8 mb 0.00 in0.0 mm 0.00 in0.0 mm 0.33 in8.4 mm
08:30 PM 84.4°F29.1°C 74.0°F23.3°C 71% 6.0 mph SW9.7 kmh SW 8.3 mph13.4 kmh 29.82 in1009.8 mb 0.00 in0.0 mm 0.00 in0.0 mm 0.33 in8.4 mm
08:35 PM 84.0°F28.9°C 74.1°F23.4°C 72% 5.4 mph SW8.7 kmh SW 9.2 mph14.8 kmh 29.82 in1009.8 mb 0.00 in0.0 mm 0.00 in0.0 mm 0.33 in8.4 mm
08:40 PM 83.8°F28.8°C 73.9°F23.3°C 72% 5.4 mph SW8.7 kmh SW 9.2 mph14.8 kmh 29.82 in1009.8 mb 0.00 in0.0 mm 0.00 in0.0 mm 0.33 in8.4 mm
08:45 PM 83.5°F28.6°C 73.6°F23.1°C 72% 5.4 mph SW8.7 kmh SW 7.6 mph12.2 kmh 29.82 in1009.8 mb 0.00 in0.0 mm 0.00 in0.0 mm 0.33 in8.4 mm
08:50 PM 83.5°F28.6°C 74.0°F23.3°C 73% 5.4 mph SW8.7 kmh SW 7.6 mph12.2 kmh 29.81 in1009.5 mb 0.00 in0.0 mm 0.00 in0.0 mm 0.33 in8.4 mm
08:55 PM 83.1°F28.4°C 73.6°F23.1°C 73% 5.4 mph SW8.7 kmh SW 7.6 mph12.2 kmh 29.82 in1009.8 mb 0.00 in0.0 mm 0.00 in0.0 mm 0.33 in8.4 mm
09:00 PM 82.8°F28.2°C 73.3°F22.9°C 73% 4.5 mph SW7.2 kmh SW 7.6 mph12.2 kmh 29.83 in1010.2 mb 0.00 in0.0 mm 0.00 in0.0 mm 0.33 in8.4 mm
09:05 PM 82.8°F28.2°C 73.3°F22.9°C 73% 6.0 mph SW9.7 kmh SW 8.3 mph13.4 kmh 29.82 in1009.8 mb 0.00 in0.0 mm 0.00 in0.0 mm 0.33 in8.4 mm
09:10 PM 82.6°F28.1°C 73.1°F22.8°C 73% 5.4 mph SW8.7 kmh SW 8.3 mph13.4 kmh 29.82 in1009.8 mb 0.00 in0.0 mm 0.00 in0.0 mm 0.33 in8.4 mm
09:15 PM 82.4°F28.0°C 73.3°F22.9°C 74% 4.5 mph SW7.2 kmh SW 8.3 mph13.4 kmh 29.83 in1010.2 mb 0.00 in0.0 mm 0.00 in0.0 mm 0.33 in8.4 mm
09:20 PM 82.2°F27.9°C 73.2°F22.9°C 74% 3.1 mph SW5.0 kmh SW 6.9 mph11.1 kmh 29.83 in1010.2 mb 0.00 in0.0 mm 0.00 in0.0 mm 0.33 in8.4 mm
09:25 PM 81.9°F27.7°C 72.8°F22.7°C 74% 5.4 mph SSW8.7 kmh SSW 6.0 mph9.7 kmh 29.82 in1009.8 mb 0.00 in0.0 mm 0.00 in0.0 mm 0.33 in8.4 mm
09:30 PM 81.9°F27.7°C 72.8°F22.7°C 74% 4.5 mph SW7.2 kmh SW 6.0 mph9.7 kmh 29.82 in1009.8 mb 0.00 in0.0 mm 0.00 in0.0 mm 0.33 in8.4 mm
09:35 PM 81.7°F27.6°C 72.6°F22.6°C 74% 3.8 mph SSW6.1 kmh SSW 6.0 mph9.7 kmh 29.83 in1010.2 mb 0.00 in0.0 mm 0.00 in0.0 mm 0.33 in8.4 mm
09:40 PM 81.5°F27.5°C 72.5°F22.5°C 74% 3.1 mph S5.0 kmh S 5.4 mph8.7 kmh 29.82 in1009.8 mb 0.00 in0.0 mm 0.00 in0.0 mm 0.33 in8.4 mm
09:45 PM 81.3°F27.4°C 72.3°F22.4°C 74% 3.1 mph S5.0 kmh S 4.5 mph7.2 kmh 29.83 in1010.2 mb 0.00 in0.0 mm 0.00 in0.0 mm 0.33 in8.4 mm
09:50 PM 81.3°F27.4°C 72.7°F22.6°C 75% 3.1 mph S5.0 kmh S 4.5 mph7.2 kmh 29.83 in1010.2 mb 0.00 in0.0 mm 0.00 in0.0 mm 0.33 in8.4 mm
09:55 PM 81.1°F27.3°C 72.5°F22.5°C 75% 3.8 mph S6.1 kmh S 4.5 mph7.2 kmh 29.83 in1010.2 mb 0.00 in0.0 mm 0.00 in0.0 mm 0.33 in8.4 mm
10:00 PM 81.1°F27.3°C 72.5°F22.5°C 75% 3.8 mph S6.1 kmh S 4.5 mph7.2 kmh 29.83 in1010.2 mb 0.00 in0.0 mm 0.00 in0.0 mm 0.33 in8.4 mm
10:05 PM 80.8°F27.1°C 72.2°F22.3°C 75% 3.8 mph S6.1 kmh S 4.5 mph7.2 kmh 29.83 in1010.2 mb 0.00 in0.0 mm 0.00 in0.0 mm 0.33 in8.4 mm
10:10 PM 81.0°F27.2°C 72.3°F22.4°C 75% 4.5 mph S7.2 kmh S 4.5 mph7.2 kmh 29.83 in1010.2 mb 0.00 in0.0 mm 0.00 in0.0 mm 0.33 in8.4 mm
10:15 PM 81.0°F27.2°C 72.3°F22.4°C 75% 3.1 mph SSW5.0 kmh SSW 5.4 mph8.7 kmh 29.84 in1010.5 mb 0.00 in0.0 mm 0.00 in0.0 mm 0.33 in8.4 mm
10:20 PM 81.0°F27.2°C 72.3°F22.4°C 75% 2.2 mph SSW3.5 kmh SSW 5.4 mph8.7 kmh 29.84 in1010.5 mb 0.00 in0.0 mm 0.00 in0.0 mm 0.33 in8.4 mm
10:25 PM 80.8°F27.1°C 72.2°F22.3°C 75% 1.6 mph SW2.6 kmh SW 4.5 mph7.2 kmh 29.85 in1010.8 mb 0.00 in0.0 mm 0.00 in0.0 mm 0.33 in8.4 mm
10:30 PM 80.8°F27.1°C 72.2°F22.3°C 75% 1.6 mph SW2.6 kmh SW 3.1 mph5.0 kmh 29.84 in1010.5 mb 0.00 in0.0 mm 0.00 in0.0 mm 0.33 in8.4 mm
10:35 PM 80.8°F27.1°C 72.2°F22.3°C 75% 1.6 mph SW2.6 kmh SW 3.1 mph5.0 kmh 29.85 in1010.8 mb 0.00 in0.0 mm 0.00 in0.0 mm 0.33 in8.4 mm
10:40 PM 80.8°F27.1°C 72.2°F22.3°C 75% 3.1 mph SW5.0 kmh SW 3.8 mph6.1 kmh 29.84 in1010.5 mb 0.00 in0.0 mm 0.00 in0.0 mm 0.33 in8.4 mm
10:45 PM 80.8°F27.1°C 72.2°F22.3°C 75% 3.1 mph SW5.0 kmh SW 4.5 mph7.2 kmh 29.84 in1010.5 mb 0.00 in0.0 mm 0.00 in0.0 mm 0.33 in8.4 mm
10:50 PM 80.8°F27.1°C 72.2°F22.3°C 75% 3.1 mph SSW5.0 kmh SSW 4.5 mph7.2 kmh 29.85 in1010.8 mb 0.00 in0.0 mm 0.00 in0.0 mm 0.33 in8.4 mm
10:55 PM 80.8°F27.1°C 72.2°F22.3°C 75% 1.6 mph S2.6 kmh S 4.5 mph7.2 kmh 29.85 in1010.8 mb 0.00 in0.0 mm 0.00 in0.0 mm 0.33 in8.4 mm
11:00 PM 80.6°F27.0°C 72.0°F22.2°C 75% 0.7 mph S1.1 kmh S 3.8 mph6.1 kmh 29.85 in1010.8 mb 0.00 in0.0 mm 0.00 in0.0 mm 0.33 in8.4 mm
11:05 PM 80.4°F26.9°C 71.8°F22.1°C 75% 0.7 mph SE1.1 kmh SE 2.2 mph3.5 kmh 29.85 in1010.8 mb 0.00 in0.0 mm 0.00 in0.0 mm 0.33 in8.4 mm
11:10 PM 80.4°F26.9°C 71.8°F22.1°C 75% 0.7 mph NNE1.1 kmh NNE 1.6 mph2.6 kmh 29.86 in1011.2 mb 0.00 in0.0 mm 0.00 in0.0 mm 0.33 in8.4 mm
11:15 PM 80.4°F26.9°C 71.8°F22.1°C 75% 0.7 mph N1.1 kmh N 1.6 mph2.6 kmh 29.85 in1010.8 mb 0.00 in0.0 mm 0.00 in0.0 mm 0.33 in8.4 mm
11:20 PM 80.4°F26.9°C 71.8°F22.1°C 75% 0.7 mph N1.1 kmh N 1.6 mph2.6 kmh 29.85 in1010.8 mb 0.00 in0.0 mm 0.00 in0.0 mm 0.33 in8.4 mm
11:25 PM 80.4°F26.9°C 72.2°F22.3°C 76% Calm Calm 1.6 mph2.6 kmh 29.85 in1010.8 mb 0.00 in0.0 mm 0.00 in0.0 mm 0.33 in8.4 mm
11:30 PM 80.2°F26.8°C 72.0°F22.2°C 76% Calm Calm 1.6 mph2.6 kmh 29.85 in1010.8 mb 0.00 in0.0 mm 0.00 in0.0 mm 0.33 in8.4 mm
11:35 PM 80.4°F26.9°C 72.2°F22.3°C 76% Calm Calm 0.7 mph1.1 kmh 29.85 in1010.8 mb 0.00 in0.0 mm 0.00 in0.0 mm 0.33 in8.4 mm
11:40 PM 80.2°F26.8°C 71.6°F22.0°C 75% Calm Calm -- 29.85 in1010.8 mb 0.00 in0.0 mm 0.00 in0.0 mm 0.33 in8.4 mm
11:45 PM 80.2°F26.8°C 71.6°F22.0°C 75% Calm Calm 0.7 mph1.1 kmh 29.85 in1010.8 mb 0.00 in0.0 mm 0.00 in0.0 mm 0.33 in8.4 mm
11:50 PM 80.1°F26.7°C 71.5°F21.9°C 75% 0.7 mph E1.1 kmh E 1.6 mph2.6 kmh 29.85 in1010.8 mb 0.00 in0.0 mm 0.00 in0.0 mm 0.33 in8.4 mm
11:55 PM 79.9°F26.6°C 71.7°F22.1°C 76% Calm Calm 1.6 mph2.6 kmh 29.85 in1010.8 mb 0.00 in0.0 mm 0.00 in0.0 mm 0.33 in8.4 mm